createdAt,value
2018-11-10T00:00:16.286Z,21.36
2018-11-10T00:00:34.700Z,21.36
2018-11-10T00:00:53.164Z,21.36
2018-11-10T00:01:11.596Z,21.36
2018-11-10T00:01:30.146Z,21.36
2018-11-10T00:01:48.587Z,21.36
2018-11-10T00:02:07.022Z,21.36
2018-11-10T00:02:25.705Z,21.36
2018-11-10T00:02:44.164Z,21.36
2018-11-10T00:03:02.625Z,21.36
2018-11-10T00:03:21.084Z,21.36
2018-11-10T00:03:39.508Z,21.36
2018-11-10T00:03:58.190Z,21.36
2018-11-10T00:04:17.181Z,21.36
2018-11-10T00:04:35.961Z,21.36
2018-11-10T00:04:54.450Z,21.36
2018-11-10T00:05:12.960Z,21.36
2018-11-10T00:05:31.441Z,21.37
2018-11-10T00:05:49.886Z,21.37
2018-11-10T00:06:08.332Z,21.37
2018-11-10T08:59:50.373Z,20.39
2018-11-10T09:00:07.077Z,20.24
2018-11-10T09:00:23.643Z,20.2
2018-11-10T09:00:40.299Z,20.19
2018-11-10T09:00:56.770Z,20.17
2018-11-10T09:01:13.229Z,20.16
2018-11-10T09:01:29.689Z,20.14
2018-11-10T09:01:46.142Z,20.08
2018-11-10T09:02:02.639Z,20.05
2018-11-10T09:02:19.210Z,20.05
2018-11-10T09:02:35.739Z,20.03
2018-11-10T09:02:52.324Z,20.02
2018-11-10T09:03:08.873Z,20.01
2018-11-10T09:03:25.433Z,20.01
2018-11-10T09:03:42.023Z,20.02
2018-11-10T09:03:58.598Z,20.05
2018-11-10T09:04:15.146Z,20.08
2018-11-10T09:04:31.720Z,20.11
2018-11-10T09:04:48.285Z,20.12
2018-11-10T09:05:05.113Z,20.12
2018-11-10T09:05:21.737Z,20.14
2018-11-10T09:05:38.379Z,20.15
2018-11-10T09:05:54.962Z,20.16
2018-11-10T09:06:11.558Z,20.17
2018-11-10T09:06:28.161Z,20.18
2018-11-10T09:06:44.769Z,20.2
2018-11-10T09:07:01.212Z,20.21
2018-11-10T09:07:17.592Z,20.24
2018-11-10T09:07:33.972Z,20.28
2018-11-10T09:07:50.329Z,20.31
2018-11-10T09:08:06.698Z,20.33
2018-11-10T09:08:23.125Z,20.35
2018-11-10T09:08:40.184Z,20.37
2018-11-10T09:08:56.601Z,20.38
2018-11-10T09:09:13.293Z,20.39
2018-11-10T09:09:31.405Z,20.4
2018-11-10T09:09:48.832Z,20.39
2018-11-10T09:10:05.782Z,20.41
2018-11-10T09:10:22.247Z,20.42
2018-11-10T09:10:38.728Z,20.44
2018-11-10T09:10:55.361Z,20.46
2018-11-10T09:11:11.772Z,20.45
2018-11-10T09:11:31.208Z,20.46
2018-11-10T09:11:50.739Z,20.48
2018-11-10T09:12:07.202Z,20.49
2018-11-10T09:12:23.539Z,20.5
2018-11-10T09:12:39.905Z,20.5
2018-11-10T09:12:56.271Z,20.48
2018-11-10T09:13:12.808Z,20.47
2018-11-10T09:13:29.319Z,20.47
2018-11-10T09:13:45.679Z,20.46
2018-11-10T09:14:02.091Z,20.44
2018-11-10T09:14:18.455Z,20.42
2018-11-10T09:14:34.804Z,20.41
2018-11-10T09:14:51.581Z,20.4
2018-11-10T09:15:08.776Z,20.39
2018-11-10T09:15:25.549Z,20.39
2018-11-10T09:15:41.927Z,20.4
2018-11-10T09:15:58.321Z,20.39
2018-11-10T09:16:14.665Z,20.39
2018-11-10T09:16:31.038Z,20.39
2018-11-10T09:16:47.419Z,20.38
2018-11-10T09:17:03.785Z,20.38
2018-11-10T09:17:20.185Z,20.38
2018-11-10T09:17:37.161Z,20.38
2018-11-10T09:17:54.079Z,20.38
2018-11-10T09:18:10.945Z,20.38
2018-11-10T09:18:27.323Z,20.39
2018-11-10T09:18:43.709Z,20.39
2018-11-10T09:19:00.237Z,20.39
2018-11-10T09:19:16.720Z,20.39
2018-11-10T09:19:33.071Z,20.39
2018-11-10T09:19:49.428Z,20.39
2018-11-10T09:20:05.805Z,20.39
2018-11-10T09:20:22.489Z,20.39
2018-11-10T09:20:38.853Z,20.39
2018-11-10T09:20:55.258Z,20.4
2018-11-10T09:21:11.840Z,20.39
2018-11-10T09:21:29.266Z,20.39
2018-11-10T09:21:46.625Z,20.39
2018-11-10T09:22:03.373Z,20.39
2018-11-10T09:22:19.787Z,20.39
2018-11-10T09:22:36.201Z,20.39
2018-11-10T09:22:52.571Z,20.4
2018-11-10T09:23:08.996Z,20.39
2018-11-10T09:23:25.362Z,20.4
2018-11-10T09:23:41.781Z,20.4
2018-11-10T09:23:58.261Z,20.4
2018-11-10T09:24:14.649Z,20.4
2018-11-10T09:24:31.104Z,20.4
2018-11-10T09:24:47.597Z,20.41
2018-11-10T09:25:04.096Z,20.41
2018-11-10T09:25:20.603Z,20.41
2018-11-10T09:25:37.385Z,20.42
2018-11-10T09:25:53.881Z,20.41
2018-11-10T09:26:10.264Z,20.42
2018-11-10T09:26:26.632Z,20.41
2018-11-10T09:26:42.992Z,20.42
2018-11-10T09:26:59.420Z,20.43
2018-11-10T09:27:15.891Z,20.43
2018-11-10T09:27:32.382Z,20.42
2018-11-10T09:27:48.921Z,20.42
2018-11-10T09:28:05.419Z,20.43
2018-11-10T09:28:22.054Z,20.43
2018-11-10T09:28:38.719Z,20.43
2018-11-10T09:28:55.334Z,20.42
2018-11-10T09:29:11.947Z,20.42
2018-11-10T09:29:28.508Z,20.42
2018-11-10T09:29:45.065Z,20.41
2018-11-10T09:30:01.973Z,20.41
2018-11-10T09:30:18.489Z,20.4
2018-11-10T09:30:35.066Z,20.41
2018-11-10T09:30:52.052Z,20.41
2018-11-10T09:31:08.771Z,20.41
2018-11-10T09:31:25.297Z,20.41
2018-11-10T09:31:41.789Z,20.41
2018-11-10T09:31:58.352Z,20.41
2018-11-10T09:32:14.866Z,20.42
2018-11-10T09:32:31.386Z,20.42
2018-11-10T09:32:47.940Z,20.43
2018-11-10T09:33:04.451Z,20.43
2018-11-10T09:33:21.066Z,20.44
2018-11-10T09:33:37.655Z,20.44
2018-11-10T09:33:54.287Z,20.44
2018-11-10T09:34:10.845Z,20.45
2018-11-10T09:34:27.495Z,20.44
2018-11-10T09:34:44.080Z,20.44
2018-11-10T09:35:00.558Z,20.45
2018-11-10T09:35:17.303Z,20.44
2018-11-10T09:35:35.254Z,20.43
2018-11-10T09:35:51.865Z,20.46
2018-11-10T09:36:08.536Z,21.03
2018-11-10T09:36:25.020Z,21.77
2018-11-10T09:36:41.709Z,21.44
2018-11-10T09:36:58.122Z,21.35
2018-11-10T09:37:14.501Z,21.19
2018-11-10T09:37:30.876Z,21.05
2018-11-10T09:37:47.257Z,20.93
2018-11-10T09:38:03.627Z,20.82
2018-11-10T09:38:19.977Z,20.72
2018-11-10T09:38:36.439Z,20.65
2018-11-10T09:38:52.804Z,20.57
2018-11-10T09:39:09.197Z,20.49
2018-11-10T09:39:25.597Z,20.42
2018-11-10T09:39:42.002Z,20.38
2018-11-10T09:39:58.401Z,20.37
2018-11-10T09:40:14.801Z,20.35
2018-11-10T09:40:31.204Z,20.36
2018-11-10T09:40:47.587Z,20.33
2018-11-10T09:41:04.019Z,20.31
2018-11-10T09:41:20.680Z,20.3
2018-11-10T09:41:37.125Z,20.27
2018-11-10T09:41:53.694Z,20.26
2018-11-10T09:42:10.817Z,20.25
2018-11-10T09:42:28.595Z,20.24
2018-11-10T09:42:46.515Z,20.22
2018-11-10T09:43:03.437Z,20.22
2018-11-10T09:43:19.820Z,20.21
2018-11-10T09:43:36.255Z,20.21
2018-11-10T09:43:52.649Z,20.2
2018-11-10T09:44:09.042Z,20.19
2018-11-10T09:44:25.431Z,20.18
2018-11-10T09:44:41.832Z,20.18
2018-11-10T09:44:58.277Z,20.18
2018-11-10T09:45:14.937Z,20.16
2018-11-10T09:45:31.387Z,20.16
2018-11-10T09:45:47.755Z,20.16
2018-11-10T09:46:04.137Z,20.16
2018-11-10T09:46:20.776Z,20.15
2018-11-10T09:46:37.170Z,20.15
2018-11-10T09:46:53.537Z,20.15
2018-11-10T09:47:09.912Z,20.14
2018-11-10T09:47:26.285Z,20.13
2018-11-10T09:47:42.656Z,20.13
2018-11-10T09:47:59.032Z,20.12
2018-11-10T09:48:15.397Z,20.11
2018-11-10T09:48:31.778Z,20.12
2018-11-10T09:48:48.253Z,20.12
2018-11-10T09:49:04.611Z,20.12
2018-11-10T09:49:20.999Z,20.12
2018-11-10T09:49:37.365Z,20.12
2018-11-10T09:49:53.889Z,20.12
2018-11-10T09:50:10.418Z,20.12
2018-11-10T09:50:26.850Z,20.13
2018-11-10T09:50:43.451Z,20.13
2018-11-10T09:51:00.545Z,20.13
2018-11-10T09:51:17.413Z,20.13
2018-11-10T09:51:34.073Z,20.13
2018-11-10T09:51:50.691Z,20.09
2018-11-10T09:52:07.123Z,20.09
2018-11-10T09:52:23.552Z,20.09
2018-11-10T09:52:39.952Z,20.08
2018-11-10T09:52:56.468Z,20.08
2018-11-10T09:53:12.854Z,20.09
2018-11-10T09:53:29.221Z,20.08
2018-11-10T09:53:45.611Z,20.07
2018-11-10T09:54:02.088Z,20.08
2018-11-10T09:54:18.557Z,20.07
2018-11-10T09:54:35.048Z,20.07
2018-11-10T09:54:51.513Z,20.07
2018-11-10T09:55:07.913Z,20.07
2018-11-10T09:55:24.304Z,20.07
2018-11-10T09:55:40.859Z,20.07
2018-11-10T09:55:57.386Z,20.07
2018-11-10T09:56:13.898Z,20.08
2018-11-10T09:56:30.454Z,20.08
2018-11-10T09:56:47.371Z,20.09
2018-11-10T09:57:03.947Z,20.09
2018-11-10T09:57:20.506Z,20.08
2018-11-10T09:57:37.141Z,20.07
2018-11-10T09:57:53.709Z,20.07
2018-11-10T09:58:10.321Z,20.08
2018-11-10T09:58:26.896Z,20.07
2018-11-10T09:58:43.365Z,20.07
2018-11-10T09:58:59.993Z,20.06
2018-11-10T09:59:16.633Z,20.03
2018-11-10T09:59:33.204Z,20.01
2018-11-10T09:59:49.912Z,20
2018-11-10T10:00:07.414Z,20.01
2018-11-10T10:00:24.351Z,20.01
2018-11-10T10:00:40.965Z,20.01
2018-11-10T10:00:57.994Z,20.01
2018-11-10T10:01:15.665Z,20.02
2018-11-10T10:01:33.774Z,20.04
2018-11-10T10:01:52.826Z,20.05
2018-11-10T10:02:12.679Z,20.08
2018-11-10T10:02:33.484Z,20.11
2018-11-10T10:02:53.081Z,20.14
2018-11-10T10:03:09.915Z,20.18
2018-11-10T10:03:26.512Z,20.2
2018-11-10T10:03:43.102Z,20.23
2018-11-10T10:03:59.688Z,20.27
2018-11-10T10:04:16.279Z,20.32
2018-11-10T10:04:32.950Z,20.34
2018-11-10T10:04:49.526Z,20.37
2018-11-10T10:05:06.110Z,20.4
2018-11-10T10:05:22.701Z,20.43
2018-11-10T10:05:39.288Z,20.47
2018-11-10T10:05:55.939Z,20.5
2018-11-10T10:06:12.540Z,20.53
2018-11-10T10:06:29.141Z,20.58
2018-11-10T10:06:45.787Z,20.61
2018-11-10T10:07:02.547Z,20.63
2018-11-10T10:07:19.051Z,20.65
2018-11-10T10:07:35.427Z,20.69
2018-11-10T10:07:51.828Z,20.72
2018-11-10T10:08:08.216Z,20.73
2018-11-10T10:08:24.610Z,20.76
2018-11-10T10:08:41.219Z,20.78
2018-11-10T10:08:58.231Z,20.8
2018-11-10T10:09:15.024Z,20.81
2018-11-10T10:09:31.490Z,20.82
2018-11-10T10:09:47.894Z,20.83
2018-11-10T10:10:04.317Z,20.85
2018-11-10T10:10:20.732Z,20.86
2018-11-10T10:10:37.156Z,20.88
2018-11-10T10:10:53.524Z,20.9
2018-11-10T10:11:09.941Z,20.92
2018-11-10T10:11:26.376Z,20.93
2018-11-10T10:11:42.783Z,20.95
2018-11-10T10:11:59.223Z,20.98
2018-11-10T10:12:15.887Z,20.98
2018-11-10T10:12:32.308Z,20.99
2018-11-10T10:12:48.721Z,21.03
2018-11-10T10:13:05.379Z,21.02
2018-11-10T10:13:21.784Z,21.04
2018-11-10T10:13:38.208Z,21.04
2018-11-10T10:13:54.576Z,21.06
2018-11-10T10:14:10.991Z,21.06
2018-11-10T10:14:27.416Z,21.05
2018-11-10T10:14:43.829Z,21.06
2018-11-10T10:15:00.234Z,21.07
2018-11-10T10:15:16.671Z,21.08
2018-11-10T10:15:33.334Z,21.09
2018-11-10T10:15:49.945Z,21.1
2018-11-10T10:16:06.877Z,21.09
2018-11-10T10:16:24.315Z,21.1
2018-11-10T10:16:42.019Z,21.1
2018-11-10T10:16:58.780Z,21.12
2018-11-10T10:17:15.175Z,21.12
2018-11-10T10:17:31.867Z,21.13
2018-11-10T10:17:48.271Z,21.13
2018-11-10T10:18:04.664Z,21.15
2018-11-10T10:18:21.053Z,21.15
2018-11-10T10:18:37.501Z,21.14
2018-11-10T10:18:53.922Z,21.13
2018-11-10T10:19:10.367Z,21.15
2018-11-10T10:19:26.781Z,21.17
2018-11-10T10:19:43.159Z,21.16
2018-11-10T10:19:59.557Z,21.19
2018-11-10T10:20:15.984Z,21.19
2018-11-10T10:20:32.367Z,21.2
2018-11-10T10:20:48.779Z,21.2
2018-11-10T10:21:05.172Z,21.2
2018-11-10T10:21:21.635Z,21.21
2018-11-10T10:21:38.152Z,21.23
2018-11-10T10:21:55.086Z,21.24
2018-11-10T10:22:12.254Z,21.23
2018-11-10T10:22:28.668Z,21.25
2018-11-10T10:22:45.344Z,21.27
2018-11-10T10:23:01.740Z,21.27
2018-11-10T10:23:18.171Z,21.28
2018-11-10T10:23:34.523Z,21.25
2018-11-10T10:23:50.939Z,21.26
2018-11-10T10:24:07.392Z,21.27
2018-11-10T10:24:23.808Z,21.27
2018-11-10T10:24:40.267Z,21.27
2018-11-10T10:24:56.815Z,21.26
2018-11-10T10:25:13.324Z,21.26
2018-11-10T10:25:29.747Z,21.26
2018-11-10T10:25:46.211Z,21.25
2018-11-10T10:26:02.658Z,21.26
2018-11-10T10:26:19.127Z,21.24
2018-11-10T10:26:35.565Z,21.24
2018-11-10T10:26:52.002Z,21.25
2018-11-10T10:27:08.429Z,21.24
2018-11-10T10:27:24.828Z,21.23
2018-11-10T10:27:41.237Z,21.23
2018-11-10T10:27:57.989Z,21.22
2018-11-10T10:28:14.643Z,21.23
2018-11-10T10:28:31.735Z,21.22
2018-11-10T10:28:48.946Z,21.21
2018-11-10T10:29:06.071Z,21.19
2018-11-10T10:29:23.378Z,21.18
2018-11-10T10:29:39.962Z,21.17
2018-11-10T10:29:56.551Z,21.16
2018-11-10T10:30:13.042Z,21.16
2018-11-10T10:30:29.506Z,21.15
2018-11-10T10:30:46.198Z,21.15
2018-11-10T10:31:02.693Z,21.14
2018-11-10T10:31:19.168Z,21.13
2018-11-10T10:31:35.660Z,21.13
2018-11-10T10:31:52.172Z,21.11
2018-11-10T10:32:08.724Z,21.11
2018-11-10T10:32:25.291Z,21.11
2018-11-10T10:32:41.798Z,21.1
2018-11-10T10:32:58.594Z,21.1
2018-11-10T10:33:15.127Z,21.1
2018-11-10T10:33:31.669Z,21.09
2018-11-10T10:33:48.270Z,21.08
2018-11-10T10:34:05.458Z,21.08
2018-11-10T10:34:23.260Z,21.07
2018-11-10T10:34:41.364Z,21.06
2018-11-10T10:34:59.280Z,21.06
2018-11-10T10:35:17.189Z,21.05
2018-11-10T10:35:35.574Z,21.04
2018-11-10T10:35:53.358Z,21.04
2018-11-10T10:36:09.981Z,21.03
2018-11-10T10:36:26.622Z,21.03
2018-11-10T10:36:43.220Z,21.02
2018-11-10T10:36:59.814Z,21.01
2018-11-10T10:37:16.410Z,21.01
2018-11-10T10:37:33.028Z,21
2018-11-10T10:37:49.687Z,20.99
2018-11-10T10:38:06.621Z,20.98
2018-11-10T10:38:23.235Z,20.98
2018-11-10T10:38:39.845Z,20.98
2018-11-10T10:38:56.436Z,20.97
2018-11-10T10:39:13.074Z,20.97
2018-11-10T10:39:29.792Z,20.96
2018-11-10T10:39:46.559Z,20.95
2018-11-10T10:40:03.150Z,20.96
2018-11-10T10:40:19.710Z,20.95
2018-11-10T10:40:36.274Z,20.94
2018-11-10T10:40:52.883Z,20.93
2018-11-10T10:41:09.483Z,20.93
2018-11-10T10:41:26.293Z,20.93
2018-11-10T10:41:42.947Z,20.93
2018-11-10T10:41:59.412Z,20.92
2018-11-10T10:42:15.907Z,20.92
2018-11-10T10:42:34.309Z,20.91
2018-11-10T10:42:53.152Z,20.9
2018-11-10T10:43:12.115Z,20.89
2018-11-10T10:43:30.491Z,20.89
2018-11-10T10:43:48.903Z,20.88
2018-11-10T10:44:07.292Z,20.87
2018-11-10T10:44:25.679Z,20.86
2018-11-10T10:44:44.109Z,20.85
2018-11-10T10:45:02.471Z,20.85
2018-11-10T10:45:20.920Z,20.85
2018-11-10T10:45:39.356Z,20.84
2018-11-10T10:45:58.013Z,20.83
2018-11-10T10:46:16.423Z,20.83
2018-11-10T10:46:34.790Z,20.82
2018-11-10T10:46:53.200Z,20.81
2018-11-10T10:47:11.602Z,20.81
2018-11-10T10:47:29.996Z,20.8
2018-11-10T10:47:48.388Z,20.8
2018-11-10T10:48:06.841Z,20.79
2018-11-10T10:48:25.767Z,20.79
2018-11-10T10:48:44.787Z,20.78
2018-11-10T10:49:03.765Z,20.78
2018-11-10T10:49:22.592Z,20.78
2018-11-10T10:49:41.033Z,20.77
2018-11-10T10:49:59.407Z,20.77
2018-11-10T10:50:17.800Z,20.76
2018-11-10T10:50:36.214Z,20.76
2018-11-10T10:50:54.619Z,20.75
2018-11-10T10:51:13.028Z,20.75
2018-11-10T10:51:31.432Z,20.75
2018-11-10T10:51:49.809Z,20.74
2018-11-10T10:52:08.241Z,20.74
2018-11-10T10:52:26.678Z,20.74
2018-11-10T10:52:45.083Z,20.73
2018-11-10T10:53:03.568Z,20.72
2018-11-10T10:53:22.000Z,20.72
2018-11-10T10:53:40.674Z,20.72
2018-11-10T11:17:39.810Z,21.77
2018-11-10T11:17:56.227Z,21.29
2018-11-10T11:18:12.621Z,20.93
2018-11-10T11:18:28.988Z,20.38
2018-11-10T11:18:45.343Z,20.01
2018-11-10T11:19:01.822Z,19.73
2018-11-10T11:19:18.198Z,19.44
2018-11-10T11:19:34.645Z,19.2
2018-11-10T11:19:51.004Z,19.01
2018-11-10T11:20:07.395Z,18.83
2018-11-10T11:20:23.795Z,18.66
2018-11-10T11:20:40.168Z,18.54
2018-11-10T11:20:56.567Z,18.43
2018-11-10T11:21:12.917Z,18.3
2018-11-10T11:21:29.268Z,18.22
2018-11-10T11:21:45.717Z,18.15
2018-11-10T11:22:02.749Z,18.1
2018-11-10T11:22:19.686Z,18.04
2018-11-10T11:22:36.041Z,18
2018-11-10T11:22:52.674Z,17.94
2018-11-10T11:23:09.070Z,17.9
2018-11-10T11:23:25.536Z,17.86
2018-11-10T11:23:41.955Z,17.86
2018-11-10T11:23:58.353Z,17.87
2018-11-10T11:24:14.721Z,17.87
2018-11-10T11:24:31.085Z,17.87
2018-11-10T11:24:47.468Z,17.87
2018-11-10T11:25:03.845Z,17.87
2018-11-10T11:25:20.211Z,17.87
2018-11-10T11:25:36.575Z,17.85
2018-11-10T11:25:52.923Z,17.86
2018-11-10T11:26:09.298Z,17.85
2018-11-10T11:26:25.647Z,17.85
2018-11-10T11:26:42.087Z,17.85
2018-11-10T11:26:58.442Z,17.85
2018-11-10T11:27:14.815Z,17.85
2018-11-10T11:27:31.167Z,17.85
2018-11-10T11:27:47.610Z,17.83
2018-11-10T11:28:04.274Z,17.82
2018-11-10T11:28:20.664Z,17.85
2018-11-10T11:28:37.033Z,17.86
2018-11-10T11:28:53.396Z,17.88
2018-11-10T11:29:10.117Z,17.89
2018-11-10T11:29:27.609Z,17.9
2018-11-10T11:29:44.978Z,17.9
2018-11-10T11:30:01.527Z,17.9
2018-11-10T11:30:17.877Z,17.9
2018-11-10T11:30:34.224Z,17.9
2018-11-10T11:30:50.584Z,17.91
2018-11-10T11:31:07.152Z,17.91
2018-11-10T11:31:23.829Z,17.92
2018-11-10T11:31:40.248Z,17.92
2018-11-10T11:31:56.614Z,17.94
2018-11-10T11:32:12.967Z,17.94
2018-11-10T11:32:29.376Z,17.94
2018-11-10T11:32:45.982Z,17.96
2018-11-10T11:33:02.380Z,17.97
2018-11-10T11:33:19.036Z,17.99
2018-11-10T11:33:35.393Z,17.99
2018-11-10T11:33:52.041Z,18
2018-11-10T11:34:08.670Z,18.01
2018-11-10T11:34:25.065Z,18.01
2018-11-10T11:34:41.443Z,18.02
2018-11-10T11:34:57.804Z,18.03
2018-11-10T11:35:14.539Z,18.03
2018-11-10T11:35:31.570Z,18.03
2018-11-10T11:35:47.936Z,18.03
2018-11-10T11:36:04.310Z,18.04
2018-11-10T11:36:20.661Z,18.04
2018-11-10T11:36:37.037Z,18.04
2018-11-10T11:36:53.393Z,18.04
2018-11-10T11:37:09.745Z,18.05
2018-11-10T11:37:26.088Z,18.05
2018-11-10T11:37:42.519Z,18.05
2018-11-10T11:37:58.946Z,18.05
2018-11-10T11:38:15.329Z,18.06
2018-11-10T11:38:31.966Z,18.06
2018-11-10T11:38:48.344Z,18.06
2018-11-10T11:39:04.722Z,18.07
2018-11-10T11:39:21.105Z,18.08
2018-11-10T11:39:37.455Z,18.08
2018-11-10T11:39:53.799Z,18.08
2018-11-10T11:40:10.169Z,18.08
2018-11-10T11:40:26.532Z,18.09
2018-11-10T11:40:42.884Z,18.09
2018-11-10T11:40:59.465Z,18.09
2018-11-10T11:41:16.446Z,18.11
2018-11-10T11:41:34.334Z,18.1
2018-11-10T11:41:51.805Z,18.11
2018-11-10T11:42:08.538Z,18.1
2018-11-10T11:42:24.891Z,18.1
2018-11-10T11:42:41.273Z,18.11
2018-11-10T11:42:57.645Z,18.1
2018-11-10T11:43:14.017Z,18.09
2018-11-10T11:43:30.391Z,18.09
2018-11-10T11:43:47.041Z,18.1
2018-11-10T11:44:03.386Z,18.1
2018-11-10T11:44:19.749Z,18.1
2018-11-10T11:44:36.119Z,18.1
2018-11-10T11:44:52.531Z,18.11
2018-11-10T11:45:08.927Z,18.11
2018-11-10T11:45:25.276Z,18.11
2018-11-10T11:45:41.638Z,18.11
2018-11-10T11:45:58.027Z,18.11
2018-11-10T11:46:14.374Z,18.12
2018-11-10T11:46:30.758Z,18.13
2018-11-10T11:46:47.112Z,18.13
2018-11-10T11:47:03.463Z,18.14
2018-11-10T11:47:19.816Z,18.13
2018-11-10T11:47:36.210Z,18.13
2018-11-10T11:47:52.829Z,18.14
2018-11-10T11:48:09.177Z,18.15
2018-11-10T11:48:25.553Z,18.14
2018-11-10T11:48:41.920Z,18.15
2018-11-10T11:48:58.545Z,18.14
2018-11-10T11:49:14.916Z,18.15
2018-11-10T11:49:31.294Z,18.15
2018-11-10T11:49:47.904Z,18.17
2018-11-10T11:50:04.494Z,18.17
2018-11-10T11:50:20.851Z,18.17
2018-11-10T11:50:37.255Z,18.17
2018-11-10T11:50:53.616Z,18.18
2018-11-10T11:51:09.992Z,18.17
2018-11-10T11:51:26.363Z,18.18
2018-11-10T11:51:42.737Z,18.2
2018-11-10T11:51:59.106Z,18.19
2018-11-10T11:52:15.463Z,18.2
2018-11-10T11:52:31.809Z,18.2
2018-11-10T11:52:48.181Z,18.2
2018-11-10T11:53:04.581Z,18.21
2018-11-10T11:53:20.948Z,18.21
2018-11-10T11:53:37.349Z,18.21
2018-11-10T11:53:53.713Z,18.21
2018-11-10T11:54:10.339Z,18.21
2018-11-10T11:54:26.691Z,18.21
2018-11-10T11:54:43.062Z,18.21
2018-11-10T11:54:59.436Z,18.21
2018-11-10T11:55:15.789Z,18.21
2018-11-10T11:55:32.141Z,18.22
2018-11-10T11:55:48.503Z,18.21
2018-11-10T11:56:04.851Z,18.22
2018-11-10T11:56:21.235Z,18.21
2018-11-10T11:56:37.626Z,18.21
2018-11-10T11:56:53.950Z,18.22
2018-11-10T11:57:10.318Z,18.22
2018-11-10T11:57:26.811Z,18.22
2018-11-10T11:57:43.777Z,18.23
2018-11-10T11:58:01.557Z,18.24
2018-11-10T11:58:19.591Z,18.24
2018-11-10T11:58:36.397Z,18.25
2018-11-10T11:58:52.764Z,18.25
2018-11-10T11:59:09.129Z,18.25
2018-11-10T11:59:25.769Z,18.25
2018-11-10T11:59:42.157Z,18.26
2018-11-10T11:59:58.513Z,18.25
2018-11-10T12:00:14.892Z,18.25
2018-11-10T12:00:31.254Z,18.25
2018-11-10T12:00:47.601Z,18.25
2018-11-10T12:01:03.980Z,18.26
2018-11-10T12:01:20.348Z,18.26
2018-11-10T12:01:36.698Z,18.26
2018-11-10T12:01:53.043Z,18.25
2018-11-10T12:02:09.751Z,18.26
2018-11-10T12:02:26.407Z,18.26
2018-11-10T12:02:42.751Z,18.27
2018-11-10T12:02:59.417Z,18.27
2018-11-10T12:03:15.797Z,18.27
2018-11-10T12:03:32.151Z,18.27
2018-11-10T12:03:48.498Z,18.27
2018-11-10T12:04:04.854Z,18.27
2018-11-10T12:04:21.375Z,18.27
2018-11-10T12:04:38.642Z,18.28
2018-11-10T12:04:55.439Z,18.27
2018-11-10T12:05:11.789Z,18.27
2018-11-10T12:05:28.162Z,18.27
2018-11-10T12:05:44.526Z,18.28
2018-11-10T12:06:00.874Z,18.27
2018-11-10T12:06:17.251Z,18.28
2018-11-10T12:06:33.614Z,18.28
2018-11-10T12:06:49.972Z,18.27
2018-11-10T12:07:06.362Z,18.28
2018-11-10T12:07:22.726Z,18.28
2018-11-10T12:07:39.087Z,18.28
2018-11-10T12:07:55.440Z,18.27
2018-11-10T12:08:11.812Z,18.27
2018-11-10T12:08:28.167Z,18.26
2018-11-10T12:08:44.541Z,18.27
2018-11-10T12:09:00.901Z,18.27
2018-11-10T12:09:17.286Z,18.28
2018-11-10T12:09:33.652Z,18.29
2018-11-10T12:09:50.293Z,18.29
2018-11-10T12:10:06.650Z,18.28
2018-11-10T12:10:23.004Z,18.29
2018-11-10T12:10:39.373Z,18.3
2018-11-10T12:10:55.750Z,18.3
2018-11-10T12:11:12.110Z,18.3
2018-11-10T12:11:28.491Z,18.31
2018-11-10T12:11:44.881Z,18.3
2018-11-10T12:12:01.244Z,18.32
2018-11-10T12:12:17.620Z,18.32
2018-11-10T12:12:33.992Z,18.32
2018-11-10T12:12:50.388Z,18.32
2018-11-10T12:13:06.734Z,18.31
2018-11-10T12:13:23.092Z,18.32
2018-11-10T12:13:39.456Z,18.32
2018-11-10T12:13:55.798Z,18.32
2018-11-10T12:14:12.157Z,18.32
2018-11-10T12:14:28.512Z,18.32
2018-11-10T12:14:44.924Z,18.33
2018-11-10T12:15:01.697Z,18.33
2018-11-10T12:15:18.414Z,18.32
2018-11-10T12:15:35.138Z,18.32
2018-11-10T12:15:51.537Z,18.33
2018-11-10T12:16:07.934Z,18.34
2018-11-10T12:16:27.923Z,18.34
2018-11-10T12:16:44.517Z,18.35
2018-11-10T12:17:01.622Z,18.35
2018-11-10T12:17:18.540Z,18.36
2018-11-10T12:17:34.917Z,18.36
2018-11-10T12:17:51.475Z,18.36
2018-11-10T12:18:08.118Z,18.37
2018-11-10T12:18:24.492Z,18.37
2018-11-10T12:18:40.852Z,18.37
2018-11-10T12:18:57.242Z,18.37
2018-11-10T12:19:13.574Z,18.37
2018-11-10T12:19:29.953Z,18.36
2018-11-10T12:19:46.359Z,18.38
2018-11-10T12:20:03.045Z,18.39
2018-11-10T12:20:19.409Z,18.39
2018-11-10T12:20:35.787Z,18.38
2018-11-10T12:20:52.285Z,18.38
2018-11-10T12:21:09.394Z,18.38
2018-11-10T12:21:25.784Z,18.39
2018-11-10T12:21:42.148Z,18.38
2018-11-10T12:21:58.674Z,18.39
2018-11-10T12:22:15.314Z,18.39
2018-11-10T12:22:31.681Z,18.4
2018-11-10T12:22:48.057Z,18.4
2018-11-10T12:23:04.426Z,18.41
2018-11-10T12:23:20.778Z,18.42
2018-11-10T12:23:37.144Z,18.42
2018-11-10T12:23:53.500Z,18.41
2018-11-10T12:24:09.867Z,18.4
2018-11-10T12:24:26.251Z,18.41
2018-11-10T12:24:42.629Z,18.42
2018-11-10T12:24:59.088Z,18.42
2018-11-10T12:25:15.743Z,18.42
2018-11-10T12:25:32.090Z,18.42
2018-11-10T12:25:48.450Z,18.43
2018-11-10T12:26:04.851Z,18.44
2018-11-10T12:26:21.202Z,18.45
2018-11-10T12:26:37.792Z,18.45
2018-11-10T12:26:54.719Z,18.45
2018-11-10T12:27:11.439Z,18.46
2018-11-10T12:27:27.789Z,18.45
2018-11-10T12:27:44.229Z,18.46
2018-11-10T12:28:00.627Z,18.47
2018-11-10T12:28:16.976Z,18.47
2018-11-10T12:28:33.346Z,18.47
2018-11-10T12:28:49.702Z,18.47
2018-11-10T12:29:06.059Z,18.46
2018-11-10T12:29:22.454Z,18.47
2018-11-10T12:29:38.866Z,18.46
2018-11-10T12:29:55.219Z,18.46
2018-11-10T12:30:11.569Z,18.47
2018-11-10T12:30:28.183Z,18.47
2018-11-10T12:30:44.546Z,18.47
2018-11-10T12:31:00.974Z,18.48
2018-11-10T12:31:17.328Z,18.49
2018-11-10T12:31:33.703Z,18.49
2018-11-10T12:31:50.195Z,18.51
2018-11-10T12:32:06.732Z,18.51
2018-11-10T12:32:23.067Z,18.52
2018-11-10T12:32:39.459Z,18.52
2018-11-10T12:32:55.847Z,18.53
2018-11-10T12:33:12.455Z,18.52
2018-11-10T12:33:28.858Z,18.53
2018-11-10T12:33:45.218Z,18.52
2018-11-10T12:34:01.548Z,18.53
2018-11-10T12:34:17.903Z,18.53
2018-11-10T12:34:34.245Z,18.54
2018-11-10T12:34:50.600Z,18.54
2018-11-10T12:35:07.005Z,18.54
2018-11-10T12:35:23.365Z,18.53
2018-11-10T12:35:39.984Z,18.53
2018-11-10T12:35:56.354Z,18.53
2018-11-10T12:36:12.695Z,18.54
2018-11-10T12:36:29.087Z,18.54
2018-11-10T12:36:45.487Z,18.55
2018-11-10T12:37:01.878Z,18.55
2018-11-10T12:37:18.277Z,18.55
2018-11-10T12:37:34.645Z,18.55
2018-11-10T12:37:50.983Z,18.54
2018-11-10T12:38:07.338Z,18.53
2018-11-10T12:38:23.676Z,18.54
2018-11-10T12:38:40.098Z,18.54
2018-11-10T12:38:57.105Z,18.54
2018-11-10T12:39:14.020Z,18.55
2018-11-10T12:39:30.402Z,18.54
2018-11-10T12:39:46.763Z,18.54
2018-11-10T12:40:03.123Z,18.55
2018-11-10T12:40:19.498Z,18.56
2018-11-10T12:40:35.880Z,18.56
2018-11-10T12:40:52.531Z,18.57
2018-11-10T12:41:08.877Z,18.57
2018-11-10T12:41:25.236Z,18.57
2018-11-10T12:41:41.604Z,18.57
2018-11-10T12:41:57.939Z,18.57
2018-11-10T12:42:14.287Z,18.56
2018-11-10T12:42:30.719Z,18.56
2018-11-10T12:42:47.062Z,18.56
2018-11-10T12:43:03.438Z,18.56
2018-11-10T12:43:19.801Z,18.57
2018-11-10T12:43:36.159Z,18.57
2018-11-10T12:43:52.525Z,18.57
2018-11-10T12:44:08.893Z,18.58
2018-11-10T12:44:25.254Z,18.57
2018-11-10T12:44:41.604Z,18.56
2018-11-10T12:44:57.963Z,18.57
2018-11-10T12:45:14.342Z,18.57
2018-11-10T12:45:30.685Z,18.58
2018-11-10T12:45:47.085Z,18.58
2018-11-10T12:46:03.729Z,18.58
2018-11-10T12:46:20.097Z,18.58
2018-11-10T12:46:36.481Z,18.58
2018-11-10T12:46:52.848Z,18.58
2018-11-10T12:47:09.659Z,18.58
2018-11-10T12:47:26.295Z,18.58
2018-11-10T12:47:43.327Z,18.58
2018-11-10T12:48:00.264Z,18.58
2018-11-10T12:48:16.916Z,18.59
2018-11-10T12:48:33.288Z,18.58
2018-11-10T12:48:49.688Z,18.59
2018-11-10T12:49:06.368Z,18.59
2018-11-10T12:49:23.066Z,18.59
2018-11-10T12:49:39.450Z,18.59
2018-11-10T12:49:55.824Z,18.6
2018-11-10T12:50:12.195Z,18.6
2018-11-10T12:50:28.578Z,18.61
2018-11-10T12:50:44.971Z,18.61
2018-11-10T12:51:01.331Z,18.6
2018-11-10T12:51:17.960Z,18.6
2018-11-10T12:51:34.332Z,18.6
2018-11-10T12:51:50.679Z,18.6
2018-11-10T12:52:07.198Z,18.6
2018-11-10T12:52:23.791Z,18.61
2018-11-10T12:52:40.180Z,18.63
2018-11-10T12:52:56.555Z,18.63
2018-11-10T12:53:12.931Z,18.64